Time;durP1;ratioP1;P1;durP2;ratioP2;P2;SDS_P1;SDS_P2;PMS_P1;PMS_P2;Temp;Humidity;BMP_temperature;BMP_pressure;BME280_temperature;BME280_humidity;BME280_pressure;Samples;Min_cycle;Max_cycle;Signal;HPM_P1;HPM_P2
2022/06/25 00:01:05;;;;;;;4.40;3.90;;;;;;;17.52;54.39;99927.95;130205;1270;108809;-72
2022/06/25 00:05:27;;;;;;;5.10;3.80;;;;;;;17.43;54.48;99926.29;130160;1270;108739;-72
2022/06/25 00:07:35;;;;;;;5.00;3.80;;;;;;;17.34;54.76;99927.56;130175;1270;108858;-72
2022/06/25 00:10:41;;;;;;;4.40;4.00;;;;;;;17.28;54.80;99925.77;130178;1269;107373;-72
2022/06/25 00:13:46;;;;;;;4.80;3.80;;;;;;;17.20;54.93;99926.50;130192;1270;108909;-72
2022/06/25 00:16:51;;;;;;;4.40;4.00;;;;;;;17.12;55.04;99924.73;130229;1270;109023;-75
2022/06/25 00:19:56;;;;;;;4.00;3.60;;;;;;;17.01;55.28;99926.73;130101;1270;108706;-72
2022/06/25 00:23:01;;;;;;;5.10;4.00;;;;;;;16.95;55.42;99923.87;130241;1270;107698;-72
2022/06/25 00:26:06;;;;;;;4.50;4.10;;;;;;;16.89;55.53;99924.68;130220;1269;108739;-72
2022/06/25 00:29:12;;;;;;;4.40;4.00;;;;;;;16.83;55.67;99922.21;130191;1269;108525;-75
2022/06/25 00:32:18;;;;;;;5.00;4.00;;;;;;;16.77;55.89;99922.03;130178;1270;109099;-72
2022/06/25 00:35:23;;;;;;;7.50;4.30;;;;;;;16.68;55.78;99921.51;130222;1270;109396;-71
2022/06/25 00:38:28;;;;;;;5.20;4.20;;;;;;;16.60;56.11;99919.48;130144;1269;108786;-72
2022/06/25 00:41:34;;;;;;;5.20;4.30;;;;;;;16.52;56.15;99922.02;130188;1269;108801;-74
2022/06/25 00:44:39;;;;;;;5.10;3.80;;;;;;;16.43;56.22;99918.95;130207;1270;108804;-73
2022/06/25 00:47:45;;;;;;;4.10;3.70;;;;;;;16.37;56.47;99919.95;130086;1269;108078;-72
2022/06/25 00:50:51;;;;;;;5.30;4.00;;;;;;;16.34;56.49;99917.90;130237;1270;108633;-71
2022/06/25 00:53:59;;;;;;;5.20;4.50;;;;;;;16.32;56.79;99912.89;130202;1269;108687;-72
2022/06/25 00:57:08;;;;;;;5.10;4.00;;;;;;;16.32;56.77;99910.86;130190;1270;108682;-72
2022/06/25 01:00:15;;;;;;;4.10;3.70;;;;;;;16.33;56.81;99907.80;130125;1270;108794;-72
2022/06/25 01:03:20;;;;;;;4.70;3.90;;;;;;;16.29;56.90;99908.73;130251;1269;107334;-70
2022/06/25 01:06:28;;;;;;;6.50;4.10;;;;;;;16.24;56.97;99911.02;130175;1269;108806;-71
2022/06/25 01:09:33;;;;;;;6.90;4.20;;;;;;;16.21;57.15;99907.61;130169;1270;108637;-73
2022/06/25 01:12:39;;;;;;;7.10;4.40;;;;;;;16.16;57.27;99907.95;130200;1270;106952;-73
2022/06/25 01:15:45;;;;;;;5.10;4.50;;;;;;;16.14;57.33;99909.05;130189;1270;107130;-71
2022/06/25 01:18:52;;;;;;;4.80;4.30;;;;;;;16.11;57.45;99909.61;130194;1268;108961;-71
2022/06/25 01:22:00;;;;;;;6.10;4.30;;;;;;;16.07;57.65;99911.88;130220;1270;106740;-71
2022/06/25 01:25:09;;;;;;;4.90;4.30;;;;;;;16.04;57.79;99907.49;130148;1270;108785;-71
2022/06/25 01:28:14;;;;;;;5.20;4.50;;;;;;;16.00;57.90;99905.11;130253;1269;108775;-71
2022/06/25 01:31:19;;;;;;;4.50;4.10;;;;;;;15.94;57.91;99903.05;130207;1270;108784;-71
2022/06/25 01:34:24;;;;;;;4.80;4.30;;;;;;;15.88;58.16;99902.89;130213;1270;109471;-71
2022/06/25 01:37:30;;;;;;;6.10;4.50;;;;;;;15.83;58.23;99902.84;130177;1270;108962;-72
2022/06/25 01:40:35;;;;;;;5.00;4.20;;;;;;;15.78;58.26;99900.82;130095;1270;108842;-72
2022/06/25 01:43:40;;;;;;;5.40;3.80;;;;;;;15.73;58.29;99898.50;130077;1269;107620;-74
2022/06/25 01:46:45;;;;;;;5.40;3.80;;;;;;;15.64;58.50;99898.41;130185;1270;108768;-73
2022/06/25 01:49:51;;;;;;;4.90;4.10;;;;;;;15.64;58.40;99900.56;130207;1270;108670;-72
2022/06/25 01:52:56;;;;;;;5.70;4.10;;;;;;;15.64;58.56;99900.32;129942;1269;108697;-71
2022/06/25 01:56:02;;;;;;;6.20;4.60;;;;;;;15.62;58.64;99898.98;130169;1270;108775;-72
2022/06/25 01:59:08;;;;;;;7.50;4.00;;;;;;;15.70;59.80;99901.25;130095;1270;108886;-72
2022/06/25 02:02:14;;;;;;;4.50;4.10;;;;;;;16.00;59.63;99909.05;130210;1270;108742;-72
2022/06/25 02:05:56;;;;;;;4.60;4.10;;;;;;;16.28;60.39;99905.98;130188;1269;108692;-72
2022/06/25 02:08:47;;;;;;;4.90;4.00;;;;;;;16.56;59.05;99904.41;130115;1270;108863;-72
2022/06/25 02:11:52;;;;;;;5.80;4.10;;;;;;;16.65;59.42;99907.27;130229;1269;108767;-73
2022/06/25 02:14:57;;;;;;;4.90;3.80;;;;;;;16.85;59.46;99907.09;130199;1269;108780;-74
2022/06/25 02:18:02;;;;;;;4.60;4.20;;;;;;;17.04;59.33;99902.54;130200;1270;109092;-73
2022/06/25 02:21:08;;;;;;;4.50;4.10;;;;;;;17.17;58.84;99902.34;130114;1270;108865;-74
2022/06/25 02:24:13;;;;;;;7.50;4.20;;;;;;;17.18;58.94;99903.64;130183;1270;108833;-71
2022/06/25 02:27:18;;;;;;;4.20;3.80;;;;;;;17.24;58.71;99906.52;130163;1269;108776;-72
2022/06/25 02:30:23;;;;;;;4.50;4.00;;;;;;;17.33;59.15;99910.64;130157;1269;106744;-71
2022/06/25 02:33:29;;;;;;;4.50;4.10;;;;;;;17.48;58.93;99908.23;130139;1270;108797;-71
2022/06/25 02:36:34;;;;;;;5.20;4.10;;;;;;;17.51;58.71;99909.52;130171;1270;109047;-72
2022/06/25 02:39:43;;;;;;;4.90;4.30;;;;;;;17.56;58.96;99915.38;130192;1270;109044;-72
2022/06/25 02:42:49;;;;;;;4.70;4.30;;;;;;;17.64;58.66;99914.68;130175;1270;108879;-71
2022/06/25 02:45:55;;;;;;;6.40;5.00;;;;;;;17.59;58.66;99912.14;130199;1269;108662;-71
2022/06/25 02:49:01;;;;;;;6.50;5.10;;;;;;;17.56;58.65;99910.61;130087;1270;108572;-72
2022/06/25 02:52:08;;;;;;;4.70;4.20;;;;;;;17.48;58.51;99908.15;130194;1270;108826;-72
2022/06/25 02:55:13;;;;;;;4.80;4.30;;;;;;;17.48;58.58;99907.74;130071;1269;108738;-79
2022/06/25 03:01:49;;;;;;;6.70;4.50;;;;;;;17.34;58.58;99905.23;130157;1270;108812;-77
2022/06/25 03:04:55;;;;;;;4.80;4.10;;;;;;;17.26;58.58;99904.31;130186;1269;108807;-79
2022/06/25 03:08:01;;;;;;;5.00;4.20;;;;;;;17.18;58.63;99900.36;130190;1270;107650;-78
2022/06/25 03:11:07;;;;;;;5.70;3.90;;;;;;;17.09;58.69;99903.20;130111;1268;108802;-81
2022/06/25 03:14:12;;;;;;;5.00;4.50;;;;;;;17.01;58.82;99907.54;130172;1269;108971;-80
2022/06/25 03:17:19;;;;;;;4.70;4.30;;;;;;;17.04;58.95;99906.36;130177;1269;108871;-75
2022/06/25 03:20:45;;;;;;;4.10;3.70;;;;;;;17.33;59.33;99908.39;130189;1270;108928;-76
2022/06/25 03:23:50;;;;;;;4.20;3.70;;;;;;;17.65;58.71;99915.17;130191;1270;108896;-74
2022/06/25 03:26:55;;;;;;;4.20;3.80;;;;;;;17.92;58.67;99913.59;130176;1270;109673;-74
2022/06/25 03:30:00;;;;;;;4.80;4.30;;;;;;;18.22;58.44;99915.92;130175;1270;108681;-75
2022/06/25 03:33:06;;;;;;;4.80;4.20;;;;;;;18.52;58.40;99919.45;130120;1270;108638;-76
2022/06/25 03:36:22;;;;;;;4.60;4.10;;;;;;;18.82;58.35;99918.77;130207;1270;108809;-76
2022/06/25 03:39:28;;;;;;;4.40;4.00;;;;;;;19.09;58.23;99922.88;130114;1270;108367;-74
2022/06/25 03:42:33;;;;;;;4.60;4.20;;;;;;;19.36;58.07;99921.30;130218;1270;108738;-73
2022/06/25 03:45:43;;;;;;;4.70;3.90;;;;;;;19.61;57.98;99918.59;130214;1270;108770;-74
2022/06/25 03:48:49;;;;;;;6.60;4.00;;;;;;;19.86;57.83;99921.55;130199;1269;108670;-74
2022/06/25 03:52:15;;;;;;;5.00;4.00;;;;;;;20.16;57.55;99921.34;130186;1270;109045;-71
2022/06/25 03:55:21;;;;;;;4.30;3.60;;;;;;;20.41;57.34;99923.02;130252;1270;108661;-71
2022/06/25 03:58:26;;;;;;;6.10;4.10;;;;;;;20.67;57.27;99924.28;130224;1269;108804;-71
2022/06/25 04:01:32;;;;;;;4.50;4.00;;;;;;;20.92;56.79;99915.54;130001;1270;108970;-72
2022/06/25 04:04:39;;;;;;;4.20;3.40;;;;;;;21.15;56.81;99923.98;130229;1269;108932;-75
2022/06/25 04:07:44;;;;;;;7.30;4.30;;;;;;;21.37;56.74;99925.73;130101;1270;108763;-78
2022/06/25 04:10:49;;;;;;;4.50;4.00;;;;;;;21.61;56.47;99927.87;130130;1270;108379;-75
2022/06/25 04:13:55;;;;;;;6.30;4.40;;;;;;;21.80;56.43;99930.14;130224;1270;107692;-74
2022/06/25 04:17:01;;;;;;;4.80;3.70;;;;;;;21.98;56.02;99933.54;130192;1269;109061;-74
2022/06/25 04:20:14;;;;;;;4.30;3.70;;;;;;;22.18;55.91;99937.96;130084;1270;108918;-77
2022/06/25 04:23:20;;;;;;;4.30;3.60;;;;;;;22.34;55.60;99936.56;130172;1270;108676;-72
2022/06/25 04:26:25;;;;;;;4.00;3.60;;;;;;;22.47;55.21;99943.70;130056;1269;108830;-74
2022/06/25 04:29:31;;;;;;;4.70;3.60;;;;;;;22.61;55.21;99943.27;130178;1270;107706;-71
2022/06/25 04:32:59;;;;;;;4.30;3.70;;;;;;;22.84;55.02;99942.64;130223;1270;108751;-74
2022/06/25 04:36:28;;;;;;;3.70;3.30;;;;;;;23.00;54.56;99940.41;130146;1269;108781;-74
2022/06/25 04:39:40;;;;;;;4.90;3.70;;;;;;;23.17;54.24;99944.98;130179;1269;108805;-74
2022/06/25 04:42:46;;;;;;;3.70;3.40;;;;;;;23.35;53.77;99942.70;130170;1270;108759;-74
2022/06/25 04:45:51;;;;;;;4.00;3.60;;;;;;;23.45;53.69;99941.42;130086;1270;108853;-72
2022/06/25 04:49:01;;;;;;;4.60;3.40;;;;;;;23.49;53.53;99942.53;130168;1269;108801;-74
2022/06/25 04:52:19;;;;;;;4.00;3.60;;;;;;;23.61;53.30;99944.52;130209;1270;108708;-74
2022/06/25 04:55:24;;;;;;;4.70;3.70;;;;;;;23.70;53.09;99945.81;130087;1270;108782;-77
2022/06/25 04:58:29;;;;;;;5.20;3.50;;;;;;;23.78;52.93;99953.26;130098;1269;108789;-78
2022/06/25 05:01:58;;;;;;;4.80;3.40;;;;;;;23.87;52.30;99956.73;130208;1269;108859;-76
2022/06/25 05:05:36;;;;;;;3.70;3.30;;;;;;;23.93;51.97;99954.49;130036;1269;108704;-75
2022/06/25 05:08:46;;;;;;;4.40;3.50;;;;;;;23.98;52.10;99958.98;130180;1270;108902;-75
2022/06/25 05:11:51;;;;;;;4.40;3.50;;;;;;;24.03;51.78;99958.30;130130;1270;108827;-74
2022/06/25 05:14:58;;;;;;;4.10;3.60;;;;;;;24.06;51.49;99960.41;130197;1270;108780;-73
2022/06/25 05:18:04;;;;;;;4.40;3.60;;;;;;;24.09;51.26;99962.20;130101;1270;108682;-72
2022/06/25 05:21:09;;;;;;;5.70;3.40;;;;;;;24.10;50.95;99965.20;130213;1269;108680;-73
2022/06/25 05:24:16;;;;;;;5.20;3.50;;;;;;;24.11;51.28;99967.35;130150;1269;108829;-74
2022/06/25 05:27:23;;;;;;;4.20;3.40;;;;;;;24.15;50.86;99965.51;130102;1270;107365;-74
2022/06/25 05:30:29;;;;;;;5.80;3.40;;;;;;;24.19;50.75;99966.65;130055;1270;108737;-73
2022/06/25 05:33:34;;;;;;;3.80;3.40;;;;;;;24.24;50.60;99961.81;130167;1270;108748;-74
2022/06/25 05:36:39;;;;;;;6.40;3.60;;;;;;;24.26;50.22;99967.14;130182;1270;108944;-74
2022/06/25 05:39:45;;;;;;;4.00;3.30;;;;;;;24.24;50.15;99969.56;130148;1270;108861;-74
2022/06/25 05:42:50;;;;;;;3.30;3.00;;;;;;;24.28;50.28;99971.37;130166;1270;108928;-76
2022/06/25 05:45:55;;;;;;;3.70;3.40;;;;;;;24.29;50.17;99968.23;130117;1270;108060;-73
2022/06/25 05:49:00;;;;;;;6.00;3.30;;;;;;;24.30;49.92;99968.18;130199;1270;109077;-77
2022/06/25 05:52:07;;;;;;;4.40;3.40;;;;;;;24.30;50.00;99960.77;130127;1270;108641;-75
2022/06/25 05:55:13;;;;;;;4.40;3.70;;;;;;;24.34;49.92;99961.14;130232;1268;108747;-75
2022/06/25 05:58:18;;;;;;;4.00;3.50;;;;;;;24.36;49.55;99964.82;130226;1268;108585;-77
2022/06/25 06:01:23;;;;;;;6.40;3.10;;;;;;;24.33;49.43;99964.55;130206;1269;108848;-76
2022/06/25 06:04:29;;;;;;;4.50;3.50;;;;;;;24.34;49.57;99966.88;130193;1269;108730;-76
2022/06/25 06:07:34;;;;;;;4.40;3.30;;;;;;;24.34;49.28;99972.48;130217;1271;108740;-74
2022/06/25 06:10:40;;;;;;;4.60;3.50;;;;;;;24.33;49.19;99970.56;130212;1268;108706;-73
2022/06/25 06:13:45;;;;;;;4.20;3.40;;;;;;;24.34;49.33;99970.36;130179;1268;108753;-73
2022/06/25 06:16:50;;;;;;;5.00;3.40;;;;;;;24.36;49.14;99970.17;130186;1268;108643;-77
2022/06/25 06:19:55;;;;;;;4.60;3.20;;;;;;;24.34;48.83;99969.70;130249;1268;108813;-76
2022/06/25 06:23:01;;;;;;;3.90;3.10;;;;;;;24.30;48.81;99970.59;130211;1268;108674;-83
2022/06/25 06:26:06;;;;;;;3.60;3.00;;;;;;;24.29;49.02;99963.53;130287;1268;108540;-81
2022/06/25 06:29:12;;;;;;;5.90;3.20;;;;;;;24.28;48.76;99965.23;130331;1271;108052;-79
2022/06/25 06:32:17;;;;;;;3.70;3.30;;;;;;;24.23;48.70;99961.74;130402;1268;108270;-79
2022/06/25 06:35:22;;;;;;;3.70;3.00;;;;;;;24.19;48.78;99962.53;130287;1271;108829;-76
2022/06/25 06:38:28;;;;;;;3.70;3.00;;;;;;;24.17;48.20;99958.39;130328;1270;108826;-76
2022/06/25 06:41:33;;;;;;;4.50;3.70;;;;;;;24.19;48.73;99962.29;130258;1268;108733;-75
2022/06/25 06:44:39;;;;;;;4.20;3.60;;;;;;;24.19;48.74;99963.21;130198;1271;108689;-77
2022/06/25 06:47:44;;;;;;;6.30;3.60;;;;;;;24.19;48.48;99963.16;130206;1269;108798;-74
2022/06/25 06:50:50;;;;;;;4.30;3.50;;;;;;;24.23;48.40;99966.45;130243;1271;108550;-75
2022/06/25 06:53:55;;;;;;;5.40;3.10;;;;;;;24.28;48.32;99963.68;130222;1270;108254;-74
2022/06/25 06:57:00;;;;;;;5.70;3.50;;;;;;;24.37;48.51;99962.88;130203;1269;108938;-74
2022/06/25 07:00:08;;;;;;;3.80;3.20;;;;;;;24.42;48.38;99960.65;130361;1270;107211;-76
2022/06/25 07:03:13;;;;;;;4.40;3.10;;;;;;;24.47;48.13;99960.55;130252;1270;108759;-76
2022/06/25 07:06:18;;;;;;;4.00;3.10;;;;;;;24.50;47.45;99957.85;130193;1270;108851;-76
2022/06/25 07:09:23;;;;;;;5.30;3.10;;;;;;;24.53;47.77;99955.98;130176;1270;109701;-77
2022/06/25 07:12:29;;;;;;;4.60;3.00;;;;;;;24.60;47.60;99958.35;130199;1270;107117;-74
2022/06/25 07:15:34;;;;;;;3.00;2.70;;;;;;;24.66;47.72;99954.89;130325;1270;108353;-75
2022/06/25 07:18:39;;;;;;;3.00;2.70;;;;;;;24.74;46.38;99955.36;130198;1270;108854;-75
2022/06/25 07:21:44;;;;;;;2.90;2.60;;;;;;;24.77;46.69;99956.50;130156;1270;109001;-75
2022/06/25 07:24:51;;;;;;;3.30;3.00;;;;;;;24.83;46.92;99953.95;130228;1270;108778;-73
2022/06/25 07:27:56;;;;;;;2.80;2.60;;;;;;;24.88;45.91;99959.52;130219;1270;108678;-74
2022/06/25 07:31:01;;;;;;;3.20;2.90;;;;;;;24.91;46.29;99955.90;130173;1270;108957;-77
2022/06/25 07:34:07;;;;;;;3.20;2.90;;;;;;;24.95;46.22;99959.00;130169;1270;108704;-74
2022/06/25 07:37:12;;;;;;;3.40;2.70;;;;;;;24.97;46.02;99959.80;130232;1270;108732;-75
2022/06/25 07:40:17;;;;;;;3.30;2.60;;;;;;;24.99;46.27;99964.73;130168;1270;108076;-74
2022/06/25 07:43:23;;;;;;;2.80;2.60;;;;;;;25.01;45.85;99966.92;130217;1270;108866;-75
2022/06/25 07:46:28;;;;;;;3.20;2.70;;;;;;;25.09;45.68;99967.19;130186;1270;108943;-75
2022/06/25 07:51:56;;;;;;;3.20;2.70;;;;;;;25.15;45.96;99964.18;130195;1270;108723;-74
2022/06/25 07:52:59;;;;;;;3.50;2.50;;;;;;;25.19;45.91;99960.25;130167;1270;108644;-72
2022/06/25 07:56:05;;;;;;;3.80;2.50;;;;;;;25.23;45.06;99960.91;130177;1270;108979;-75
2022/06/25 07:59:10;;;;;;;2.80;2.50;;;;;;;25.32;45.10;99961.49;130213;1270;108735;-75
2022/06/25 08:02:15;;;;;;;3.00;2.50;;;;;;;25.40;44.70;99960.86;130213;1270;108885;-74
2022/06/25 08:05:21;;;;;;;5.10;2.70;;;;;;;25.48;44.94;99960.88;130145;1270;108855;-75
2022/06/25 08:08:26;;;;;;;4.30;3.00;;;;;;;25.56;44.88;99957.73;130210;1269;108037;-74
2022/06/25 08:11:32;;;;;;;3.80;2.80;;;;;;;25.61;44.64;99960.45;130226;1269;108826;-72
2022/06/25 08:14:37;;;;;;;2.60;2.40;;;;;;;25.67;44.75;99961.05;130293;1270;108714;-83
2022/06/25 08:17:42;;;;;;;2.70;2.50;;;;;;;25.76;44.59;99967.73;130384;1270;108786;-80
2022/06/25 08:20:47;;;;;;;2.60;2.40;;;;;;;25.86;44.53;99965.36;130418;1270;108808;-78
2022/06/25 08:23:53;;;;;;;3.10;2.60;;;;;;;25.94;44.20;99966.92;130120;1270;109958;-75
2022/06/25 08:26:58;;;;;;;4.00;2.40;;;;;;;26.00;44.28;99964.40;130177;1270;108748;-75
2022/06/25 08:30:03;;;;;;;3.10;2.50;;;;;;;26.07;44.03;99966.70;130256;1270;108642;-74
2022/06/25 08:33:09;;;;;;;3.50;2.60;;;;;;;26.14;43.72;99965.20;130197;1270;108595;-72
2022/06/25 08:36:14;;;;;;;4.00;2.30;;;;;;;26.20;43.99;99968.42;130167;1270;108853;-76
2022/06/25 08:39:19;;;;;;;3.60;2.60;;;;;;;26.26;43.66;99968.14;130258;1270;108912;-77
2022/06/25 08:42:24;;;;;;;2.80;2.60;;;;;;;26.27;43.38;99971.25;130199;1270;108854;-75
2022/06/25 08:45:29;;;;;;;3.20;2.30;;;;;;;26.29;43.57;99967.55;130279;1270;108761;-74
2022/06/25 08:48:37;;;;;;;2.70;2.30;;;;;;;26.34;43.59;99970.20;130224;1270;108715;-75
2022/06/25 08:51:44;;;;;;;2.90;2.20;;;;;;;26.41;43.63;99971.50;130222;1269;108336;-74
2022/06/25 08:54:52;;;;;;;3.40;2.40;;;;;;;26.44;42.83;99973.00;130175;1271;108785;-74
2022/06/25 08:57:58;;;;;;;2.90;2.60;;;;;;;26.45;42.78;99978.20;130205;1271;108852;-72
2022/06/25 09:01:03;;;;;;;5.00;2.40;;;;;;;26.51;43.25;99971.06;130206;1271;108653;-75
2022/06/25 09:04:09;;;;;;;2.80;2.50;;;;;;;26.57;43.24;99971.41;130174;1271;108469;-79
2022/06/25 09:07:17;;;;;;;2.60;2.40;;;;;;;26.60;43.37;99974.95;130181;1270;107636;-73
2022/06/25 09:10:23;;;;;;;3.70;2.50;;;;;;;26.68;43.34;99973.20;130222;1270;108739;-71
2022/06/25 09:13:29;;;;;;;2.80;2.40;;;;;;;26.74;42.75;99976.84;130230;1270;108733;-71
2022/06/25 09:16:34;;;;;;;3.70;2.30;;;;;;;26.74;42.48;99977.55;130143;1270;108588;-72
2022/06/25 09:19:42;;;;;;;2.70;2.50;;;;;;;26.79;42.87;99976.42;130167;1271;108696;-76
2022/06/25 09:23:01;;;;;;;4.30;2.30;;;;;;;26.82;42.65;99977.31;130167;1270;107763;-74
2022/06/25 09:26:08;;;;;;;3.00;2.30;;;;;;;26.85;42.17;99983.39;130130;1269;108990;-73
2022/06/25 09:29:14;;;;;;;3.80;2.40;;;;;;;26.89;42.37;99976.68;130306;1269;108579;-73
2022/06/25 09:32:20;;;;;;;2.70;2.50;;;;;;;26.93;42.01;99977.61;130248;1271;108880;-72
2022/06/25 09:35:34;;;;;;;2.50;2.30;;;;;;;26.97;42.16;99978.67;130584;1270;108675;-72
2022/06/25 09:38:50;;;;;;;2.90;2.50;;;;;;;27.00;42.04;99973.10;130314;1270;108853;-74
2022/06/25 09:41:57;;;;;;;2.70;2.50;;;;;;;27.07;41.95;99974.59;130251;1270;108642;-76
2022/06/25 09:45:06;;;;;;;4.50;2.40;;;;;;;27.12;41.27;99967.91;130150;1270;108593;-76
2022/06/25 09:48:19;;;;;;;3.10;2.40;;;;;;;27.18;41.77;99972.98;130155;1270;108746;-75
2022/06/25 09:51:26;;;;;;;2.80;2.50;;;;;;;27.23;41.45;99969.60;130040;1271;289793;-76
2022/06/25 09:54:32;;;;;;;3.50;2.30;;;;;;;27.28;41.66;99974.56;130258;1270;108509;-75
2022/06/25 09:57:39;;;;;;;3.10;2.20;;;;;;;27.32;41.26;99974.80;130170;1270;107722;-75
2022/06/25 10:00:45;;;;;;;3.10;2.30;;;;;;;27.37;41.29;99974.80;130220;1269;108755;-75
2022/06/25 10:03:50;;;;;;;2.50;2.30;;;;;;;27.41;40.78;99971.20;130163;1269;109867;-75
2022/06/25 10:06:58;;;;;;;2.70;2.40;;;;;;;27.41;40.48;99975.90;130154;1271;108872;-75
2022/06/25 10:10:03;;;;;;;3.60;2.30;;;;;;;27.41;40.35;99970.70;130185;1271;108765;-75
2022/06/25 10:13:10;;;;;;;2.30;2.10;;;;;;;27.45;40.02;99967.76;130152;1269;109789;-75
2022/06/25 10:16:18;;;;;;;2.40;2.20;;;;;;;27.48;39.57;99968.89;130144;1269;108829;-74
2022/06/25 10:19:25;;;;;;;2.70;2.40;;;;;;;27.48;39.62;99971.05;130223;1271;108898;-75
2022/06/25 10:22:31;;;;;;;4.10;2.20;;;;;;;27.48;39.19;99973.29;130178;1270;108864;-74
2022/06/25 10:25:37;;;;;;;3.80;2.10;;;;;;;27.48;39.31;99972.91;130132;1271;108762;-75
2022/06/25 10:28:43;;;;;;;2.40;2.20;;;;;;;27.52;38.85;99963.91;130183;1271;108826;-75
2022/06/25 10:31:48;;;;;;;2.60;2.00;;;;;;;27.55;38.73;99964.18;130190;1271;108785;-74
2022/06/25 10:35:00;;;;;;;2.40;2.10;;;;;;;27.58;38.76;99964.25;130181;1271;108778;-75
2022/06/25 10:38:09;;;;;;;2.90;2.10;;;;;;;27.59;38.86;99965.11;130171;1270;108761;-75
2022/06/25 10:44:38;;;;;;;3.00;2.30;;;;;;;27.64;38.39;99966.99;130152;1271;108735;-75
2022/06/25 10:47:47;;;;;;;3.20;2.20;;;;;;;27.68;38.73;99962.71;130191;1271;108786;-75
2022/06/25 10:50:54;;;;;;;3.00;2.30;;;;;;;27.79;38.49;99956.02;130120;1271;108651;-75
2022/06/25 10:54:00;;;;;;;3.50;2.30;;;;;;;27.86;38.15;99951.97;130135;1270;109079;-77
2022/06/25 10:57:07;;;;;;;2.30;2.10;;;;;;;27.86;37.83;99955.64;130134;1271;108863;-74
2022/06/25 11:00:15;;;;;;;2.80;2.30;;;;;;;27.85;37.73;99948.78;130111;1270;107081;-75
2022/06/25 11:03:43;;;;;;;2.90;2.00;;;;;;;27.89;37.88;99951.33;130132;1271;108466;-75
2022/06/25 11:06:48;;;;;;;2.80;2.00;;;;;;;27.92;37.47;99946.51;130044;1269;108639;-75
2022/06/25 11:09:56;;;;;;;5.00;2.30;;;;;;;27.93;37.32;99944.80;130038;1271;109256;-75
2022/06/25 11:13:02;;;;;;;2.30;2.10;;;;;;;27.97;37.09;99945.90;130051;1271;108992;-74
2022/06/25 11:16:16;;;;;;;2.30;2.10;;;;;;;27.99;37.19;99942.05;130148;1270;109013;-76
2022/06/25 11:19:23;;;;;;;2.50;2.10;;;;;;;28.06;37.54;99935.63;130021;1270;108834;-75
2022/06/25 11:22:28;;;;;;;2.00;1.80;;;;;;;28.10;36.76;99937.92;130003;1271;108920;-74
2022/06/25 11:29:08;;;;;;;2.40;2.20;;;;;;;28.14;36.80;99932.70;126863;1302;635913;-76
2022/06/25 11:32:14;;;;;;;3.00;2.70;;;;;;;28.11;36.59;99936.61;129167;1281;107711;-76
2022/06/25 11:35:19;;;;;;;3.40;2.50;;;;;;;28.14;36.88;99930.34;128948;1281;109534;-76
2022/06/25 11:38:24;;;;;;;4.30;2.60;;;;;;;28.18;36.74;99934.51;129064;1281;107343;-76
2022/06/25 11:41:31;;;;;;;3.10;2.50;;;;;;;28.21;36.74;99937.63;128803;1280;328462;-75
2022/06/25 11:44:45;;;;;;;3.40;2.40;;;;;;;28.21;36.47;99937.52;129084;1279;108749;-74
2022/06/25 11:47:50;;;;;;;2.40;2.20;;;;;;;28.24;36.41;99935.15;129189;1278;108828;-74
2022/06/25 11:50:59;;;;;;;2.90;2.60;;;;;;;28.24;36.63;99925.27;129115;1279;108731;-75
2022/06/25 11:54:07;;;;;;;2.90;2.30;;;;;;;28.26;36.39;99932.45;128992;1279;108745;-75
2022/06/25 11:57:18;;;;;;;3.80;2.30;;;;;;;28.27;35.99;99930.25;129050;1279;108715;-75
2022/06/25 12:00:22;;;;;;;;;;;;;;;28.24;35.70;99925.27;129186;1278;107685;-75
2022/06/25 12:03:30;;;;;;;2.90;2.40;;;;;;;28.23;35.68;99934.65;129029;1279;108689;-75
2022/06/25 12:06:35;;;;;;;2.30;2.10;;;;;;;28.24;35.74;99932.13;129183;1279;108776;-75
2022/06/25 12:09:41;;;;;;;2.50;2.30;;;;;;;28.28;35.81;99930.91;128975;1280;108768;-76
2022/06/25 12:12:48;;;;;;;3.40;2.00;;;;;;;28.33;35.33;99933.69;128995;1280;107178;-75
2022/06/25 12:15:59;;;;;;;3.00;2.10;;;;;;;28.33;34.74;99935.29;129039;1279;107351;-75
2022/06/25 12:19:05;;;;;;;2.30;1.90;;;;;;;28.34;34.93;99937.36;129085;1279;108284;-75
2022/06/25 12:22:20;;;;;;;2.20;2.00;;;;;;;28.42;34.97;99940.36;128999;1279;108770;-75
2022/06/25 12:25:27;;;;;;;2.10;2.00;;;;;;;28.49;34.64;99935.17;129140;1279;108870;-76
2022/06/25 12:28:40;;;;;;;2.20;2.00;;;;;;;28.49;34.67;99933.80;129023;1279;109807;-75
2022/06/25 12:31:56;;;;;;;2.20;2.00;;;;;;;28.55;34.77;99936.05;129220;1278;109767;-76
2022/06/25 12:35:02;;;;;;;2.20;2.00;;;;;;;28.64;34.69;99938.01;129182;1280;108871;-75
2022/06/25 12:38:08;;;;;;;2.80;2.40;;;;;;;28.69;34.16;99935.80;129124;1279;108677;-75
2022/06/25 12:41:13;;;;;;;2.50;2.10;;;;;;;28.71;34.53;99930.79;129218;1281;107610;-75
2022/06/25 12:44:19;;;;;;;3.20;2.50;;;;;;;28.76;34.76;99929.83;129125;1279;109170;-76
2022/06/25 12:47:24;;;;;;;3.30;2.40;;;;;;;28.81;34.52;99929.95;129046;1281;108983;-75
2022/06/25 12:50:32;;;;;;;3.00;2.50;;;;;;;28.81;34.48;99929.58;129122;1281;108697;-75
2022/06/25 12:53:38;;;;;;;4.50;2.40;;;;;;;28.81;34.23;99927.22;129079;1280;108769;-74
2022/06/25 12:56:43;;;;;;;3.40;2.30;;;;;;;28.78;34.27;99923.77;129020;1281;108872;-75
2022/06/25 12:59:48;;;;;;;2.80;2.40;;;;;;;28.77;33.91;99927.58;129168;1280;109403;-76
2022/06/25 13:02:54;;;;;;;2.70;2.10;;;;;;;28.76;33.74;99927.63;129086;1279;108773;-76
2022/06/25 13:05:59;;;;;;;2.70;2.40;;;;;;;28.75;34.00;99925.77;129480;1277;107212;-75
2022/06/25 13:09:05;;;;;;;3.00;2.20;;;;;;;28.77;33.95;99928.83;129640;1277;108978;-75
2022/06/25 13:12:12;;;;;;;3.50;2.50;;;;;;;28.82;33.68;99929.41;129564;1276;107778;-75
2022/06/25 13:15:17;;;;;;;4.60;2.30;;;;;;;28.75;33.54;99923.29;129551;1277;108240;-75
2022/06/25 13:18:22;;;;;;;3.50;2.60;;;;;;;28.77;33.69;99925.44;129621;1277;108699;-76
2022/06/25 13:21:27;;;;;;;3.00;2.30;;;;;;;28.82;33.75;99927.66;129688;1275;108705;-75
2022/06/25 13:24:32;;;;;;;3.60;2.40;;;;;;;28.87;33.63;99933.17;129651;1278;108678;-75
2022/06/25 13:27:38;;;;;;;3.00;2.50;;;;;;;28.89;33.39;99930.58;129516;1277;108071;-75
2022/06/25 13:30:43;;;;;;;2.80;2.20;;;;;;;28.89;33.42;99926.52;129633;1277;109025;-75
2022/06/25 13:33:48;;;;;;;2.30;2.20;;;;;;;28.89;33.26;99933.48;129495;1276;108776;-75
2022/06/25 13:36:53;;;;;;;2.50;2.30;;;;;;;28.89;32.99;99931.73;129449;1277;108946;-75
2022/06/25 13:39:59;;;;;;;2.70;2.40;;;;;;;28.89;33.37;99929.81;129406;1277;108980;-75
2022/06/25 13:43:05;;;;;;;2.40;2.20;;;;;;;28.88;33.06;99923.55;129476;1277;108765;-75
2022/06/25 13:46:10;;;;;;;3.70;2.20;;;;;;;28.89;32.99;99930.92;129618;1277;107692;-75
2022/06/25 13:49:15;;;;;;;2.30;2.10;;;;;;;28.86;32.73;99927.48;129440;1277;108500;-75
2022/06/25 13:52:20;;;;;;;4.50;2.40;;;;;;;28.86;33.05;99926.42;129478;1277;109814;-75
2022/06/25 13:55:26;;;;;;;3.10;2.60;;;;;;;28.89;32.87;99925.91;129475;1277;108965;-74
2022/06/25 13:58:31;;;;;;;4.60;2.40;;;;;;;28.91;32.75;99923.05;129469;1275;108979;-75
2022/06/25 14:01:37;;;;;;;2.40;2.20;;;;;;;28.91;32.67;99925.36;129455;1277;108981;-76
2022/06/25 14:04:42;;;;;;;2.60;2.30;;;;;;;28.87;32.27;99912.96;129606;1277;108325;-75
2022/06/25 14:07:47;;;;;;;2.80;2.40;;;;;;;28.83;32.22;99915.68;129484;1276;109086;-75
2022/06/25 14:10:52;;;;;;;2.60;2.40;;;;;;;28.81;31.93;99919.04;129467;1278;108535;-75
2022/06/25 14:13:57;;;;;;;3.10;2.20;;;;;;;28.79;32.09;99918.65;129632;1277;107987;-75
2022/06/25 14:17:03;;;;;;;2.70;2.10;;;;;;;28.81;32.19;99919.74;129462;1276;108759;-76
2022/06/25 14:20:10;;;;;;;3.70;2.30;;;;;;;28.85;32.22;99922.42;130332;1267;108967;-75
2022/06/25 14:23:16;;;;;;;2.60;2.40;;;;;;;28.86;31.79;99923.52;130381;1268;108816;-75
2022/06/25 14:26:21;;;;;;;3.90;2.40;;;;;;;28.85;31.69;99922.92;130295;1267;108653;-75
2022/06/25 14:29:26;;;;;;;2.20;2.00;;;;;;;28.85;31.55;99921.27;130175;1268;108623;-75